»·PEaware :: N1285F KCMA-KTOA

N1285F :: KCMA-KTOA

FLIGHT INFORMATION

Flight Status: Arrived
Operator: Privately registered:
United States
More flights under this callsign
Pilot: Joshua T. (23864)
Aircraft: CESSNA 172 SKYHAWK
(C172)
More flights by this aircraft type
Origin: KCMA Camarillo
United States
Destination: KTOA Zamperini
United States
More flights between these airports :: More routes between these airports
Route: +
File this flight plan on PilotEdge
Remarks:
Altitude:
(Current/Filed)
0ft
Speed:
(Current/Filed)
0kts
Departed: 20-Jul-20 05:49 PM
Arrived: 20-Jul-20 06:22 PM
Distance/Time
Traveled:
45nm/0:33
Distance/Time
To Go:
Arrived

Flight Plot

Page will automatically refresh every two minutes.


Map Options




Map Legend


Flown Route
Filed Route
Departure Airport
Arrival Airport
Navaid (VOR, NDB)
Fix

Horizontal Profiles

Position Reports

Time Latitude Longitude Heading Altitude Ground
Speed
20-Jul-20 17:42 34.210897 -119.077061 346 78ft 0kts
20-Jul-20 17:42 34.211128 -119.077210 307 78ft 6kts
20-Jul-20 17:43 34.211188 -119.080091 269 78ft 8kts
20-Jul-20 17:45 34.211261 -119.083347 273 78ft 8kts
20-Jul-20 17:45 34.212416 -119.084259 4 78ft 9kts
20-Jul-20 17:46 34.212601 -119.084311 320 78ft 0kts
20-Jul-20 17:47 34.213000 -119.084591 45 78ft 3kts
20-Jul-20 17:48 34.213745 -119.092766 269 130ft 70kts
20-Jul-20 17:49 34.214578 -119.116953 267 848ft 72kts
20-Jul-20 17:50 34.200121 -119.108190 92 1373ft 105kts
20-Jul-20 17:51 34.196364 -119.075500 107 2068ft 93kts
20-Jul-20 17:52 34.188849 -119.046055 104 2660ft 93kts
20-Jul-20 17:53 34.180569 -119.015829 105 3196ft 95kts
20-Jul-20 17:54 34.172593 -118.984374 104 3646ft 106kts
20-Jul-20 17:55 34.165151 -118.948589 102 4034ft 110kts
20-Jul-20 17:56 34.160688 -118.912193 89 4455ft 108kts
20-Jul-20 17:57 34.158753 -118.874466 89 4789ft 112kts
20-Jul-20 17:58 34.156865 -118.838473 88 5171ft 113kts
20-Jul-20 17:59 34.149205 -118.798184 105 4982ft 101kts
20-Jul-20 18:00 34.143869 -118.762371 102 4542ft 110kts
20-Jul-20 18:01 34.140491 -118.725133 92 4103ft 112kts
20-Jul-20 18:02 34.136082 -118.687403 99 3814ft 111kts
20-Jul-20 18:03 34.128037 -118.652220 102 3615ft 108kts
20-Jul-20 18:04 34.120267 -118.617336 94 3563ft 102kts
20-Jul-20 18:05 34.116177 -118.582362 97 3529ft 109kts
20-Jul-20 18:06 34.109456 -118.545923 107 3418ft 109kts
20-Jul-20 18:07 34.098548 -118.514630 133 3553ft 101kts
20-Jul-20 18:08 34.071381 -118.497160 165 3459ft 113kts
20-Jul-20 18:09 34.043271 -118.482315 147 3524ft 117kts
20-Jul-20 18:10 34.014677 -118.460509 142 3490ft 123kts
20-Jul-20 18:11 33.986556 -118.437619 146 3520ft 121kts
20-Jul-20 18:12 33.957356 -118.416785 151 3522ft 125kts
20-Jul-20 18:13 33.927429 -118.394935 149 3519ft 125kts
20-Jul-20 18:14 33.896467 -118.371471 150 3360ft 135kts
20-Jul-20 18:15 33.864722 -118.354423 169 2829ft 94kts
20-Jul-20 18:16 33.840554 -118.347976 180 1851ft 85kts
20-Jul-20 18:17 33.818365 -118.341080 138 1067ft 103kts
20-Jul-20 18:18 33.799465 -118.311996 132 1074ft 87kts
20-Jul-20 18:19 33.791869 -118.320862 299 564ft 58kts
20-Jul-20 18:20 33.801294 -118.335451 303 108ft 43kts
20-Jul-20 18:21 33.805325 -118.341681 286 106ft 8kts
20-Jul-20 18:22 33.805824 -118.345099 221 106ft 10kts
20-Jul-20 18:23 33.804442 -118.345734 220 106ft 0kts
20-Jul-20 18:24 33.804442 -118.345734 220 106ft 0kts
20-Jul-20 18:25 33.804442 -118.345734 220 106ft 0kts
20-Jul-20 18:26 33.804442 -118.345734 220 106ft 0kts
20-Jul-20 18:27 33.804402 -118.345759 191 106ft 2kts
20-Jul-20 18:28 33.804386 -118.345619 43 106ft 0kts
20-Jul-20 18:29 33.804390 -118.345615 43 106ft 0kts
20-Jul-20 18:30 33.804324 -118.345195 120 106ft 0kts

Navigation Log

Ident Type
Flight plan parsing failed, navigation log unavailable